createdAt,value
2023-12-30T00:02:21.714Z,98.16
2023-12-30T00:05:26.423Z,98.06
2023-12-30T00:08:28.914Z,98.06
2023-12-30T00:11:31.721Z,98.01
2023-12-30T00:14:34.149Z,97.98
2023-12-30T00:17:37.162Z,98.37
2023-12-30T00:20:39.734Z,98.27
2023-12-30T00:23:46.344Z,98.36
2023-12-30T00:26:49.116Z,98.13
2023-12-30T00:29:52.080Z,98.02
2023-12-30T00:32:54.551Z,98.05
2023-12-30T00:35:58.258Z,97.88
2023-12-30T00:39:00.711Z,97.84
2023-12-30T00:42:03.554Z,98.05
2023-12-30T00:45:06.862Z,98.14
2023-12-30T00:48:09.610Z,98.16
2023-12-30T00:51:12.180Z,98.25
2023-12-30T00:54:15.028Z,98.64
2023-12-30T00:57:17.504Z,99.04
2023-12-30T01:00:20.220Z,99.03
2023-12-30T01:03:22.732Z,98.26
2023-12-30T01:06:25.627Z,98.18
2023-12-30T01:09:28.070Z,97.96
2023-12-30T01:12:30.972Z,98.00
2023-12-30T01:15:34.218Z,98.02
2023-12-30T01:18:37.112Z,98.04
2023-12-30T01:21:39.597Z,98.03
2023-12-30T01:24:42.292Z,98.01
2023-12-30T01:27:44.868Z,97.92
2023-12-30T01:30:48.129Z,98.80
2023-12-30T01:33:50.890Z,99.45
2023-12-30T01:36:55.823Z,99.93
2023-12-30T01:39:58.323Z,99.98
2023-12-30T01:43:04.453Z,99.98
2023-12-30T01:46:10.456Z,99.76
2023-12-30T01:49:14.057Z,99.75
2023-12-30T01:52:17.125Z,99.43
2023-12-30T01:55:20.803Z,99.54
2023-12-30T01:58:24.680Z,99.55
2023-12-30T02:01:28.454Z,99.74
2023-12-30T02:04:32.018Z,99.47
2023-12-30T02:07:34.810Z,99.05
2023-12-30T02:10:38.025Z,99.19
2023-12-30T02:13:44.113Z,99.00
2023-12-30T02:16:47.042Z,99.01
2023-12-30T02:19:51.886Z,99.94
2023-12-30T02:22:55.982Z,100.00
2023-12-30T02:25:58.551Z,100.00
2023-12-30T02:29:01.302Z,100.00
2023-12-30T02:32:03.742Z,100.00
2023-12-30T02:35:06.833Z,100.00
2023-12-30T02:38:09.970Z,100.00
2023-12-30T02:41:12.745Z,100.00
2023-12-30T02:44:20.231Z,100.00
2023-12-30T02:47:23.181Z,100.00
2023-12-30T02:50:25.683Z,100.00
2023-12-30T02:53:28.366Z,100.00
2023-12-30T02:56:30.786Z,100.00
2023-12-30T02:59:33.968Z,100.00
2023-12-30T03:02:37.648Z,100.00
2023-12-30T03:05:40.655Z,100.00
2023-12-30T03:08:43.099Z,100.00
2023-12-30T03:11:46.402Z,100.00
2023-12-30T03:14:48.875Z,100.00
2023-12-30T03:17:51.798Z,100.00
2023-12-30T03:20:54.322Z,100.00
2023-12-30T03:23:57.124Z,100.00
2023-12-30T03:26:59.657Z,100.00
2023-12-30T03:30:02.487Z,100.00
2023-12-30T03:33:05.399Z,100.00
2023-12-30T03:36:08.944Z,100.00
2023-12-30T03:39:11.464Z,100.00
2023-12-30T03:42:14.263Z,100.00
2023-12-30T03:45:16.810Z,100.00
2023-12-30T03:48:19.966Z,100.00
2023-12-30T03:51:22.464Z,100.00
2023-12-30T03:54:25.272Z,100.00
2023-12-30T03:57:27.842Z,100.00
2023-12-30T04:00:30.645Z,100.00
2023-12-30T04:03:33.382Z,100.00
2023-12-30T04:06:36.001Z,100.00
2023-12-30T04:09:38.806Z,100.00
2023-12-30T04:12:41.261Z,100.00
2023-12-30T04:15:44.007Z,100.00
2023-12-30T04:18:46.535Z,100.00
2023-12-30T04:21:49.860Z,100.00
2023-12-30T04:24:54.250Z,100.00
2023-12-30T04:27:58.048Z,100.00
2023-12-30T04:31:01.282Z,100.00
2023-12-30T04:34:04.694Z,100.00
2023-12-30T04:37:07.193Z,100.00
2023-12-30T04:40:10.296Z,100.00
2023-12-30T04:43:13.109Z,100.00
2023-12-30T04:46:16.084Z,100.00
2023-12-30T04:49:18.617Z,100.00
2023-12-30T04:52:21.800Z,100.00
2023-12-30T04:55:24.984Z,100.00
2023-12-30T04:58:27.742Z,100.00
2023-12-30T05:01:32.478Z,100.00
2023-12-30T05:04:35.637Z,100.00
2023-12-30T05:07:38.146Z,100.00
2023-12-30T05:10:40.956Z,100.00
2023-12-30T05:13:44.754Z,100.00
2023-12-30T05:16:47.917Z,100.00
2023-12-30T05:19:50.467Z,100.00
2023-12-30T05:22:53.363Z,100.00
2023-12-30T05:25:55.744Z,100.00
2023-12-30T05:28:59.760Z,100.00
2023-12-30T05:32:05.236Z,100.00
2023-12-30T05:35:08.423Z,100.00
2023-12-30T05:38:13.740Z,100.00
2023-12-30T05:41:16.745Z,100.00
2023-12-30T05:44:19.160Z,100.00
2023-12-30T05:47:21.881Z,100.00
2023-12-30T05:50:24.325Z,100.00
2023-12-30T05:53:29.628Z,100.00
2023-12-30T05:56:32.043Z,100.00
2023-12-30T05:59:36.371Z,100.00
2023-12-30T06:02:38.893Z,100.00
2023-12-30T06:05:44.176Z,100.00
2023-12-30T06:08:48.482Z,100.00
2023-12-30T06:11:51.246Z,100.00
2023-12-30T06:14:56.333Z,100.00
2023-12-30T06:17:59.487Z,100.00
2023-12-30T06:21:03.239Z,100.00
2023-12-30T06:24:06.461Z,100.00
2023-12-30T06:27:08.892Z,100.00
2023-12-30T06:30:12.006Z,100.00
2023-12-30T06:33:14.462Z,100.00
2023-12-30T06:36:22.664Z,100.00
2023-12-30T06:39:25.153Z,100.00
2023-12-30T06:42:27.870Z,100.00
2023-12-30T06:45:30.505Z,100.00
2023-12-30T06:48:33.282Z,100.00
2023-12-30T06:55:52.565Z,100.00
2023-12-30T06:58:55.503Z,100.00
2023-12-30T07:01:58.006Z,100.00
2023-12-30T07:05:01.096Z,100.00
2023-12-30T07:08:03.717Z,100.00
2023-12-30T07:11:06.377Z,100.00
2023-12-30T07:14:08.814Z,100.00
2023-12-30T07:17:12.087Z,100.00
2023-12-30T07:20:14.638Z,100.00
2023-12-30T07:23:17.356Z,100.00
2023-12-30T07:26:20.033Z,100.00
2023-12-30T07:29:22.797Z,100.00
2023-12-30T07:32:25.265Z,100.00
2023-12-30T07:35:28.589Z,100.00
2023-12-30T07:38:32.142Z,100.00
2023-12-30T07:41:35.084Z,100.00
2023-12-30T07:44:39.669Z,100.00
2023-12-30T07:47:42.529Z,100.00
2023-12-30T07:50:45.134Z,100.00
2023-12-30T07:53:48.595Z,100.00
2023-12-30T07:56:51.453Z,100.00
2023-12-30T07:59:54.237Z,100.00
2023-12-30T08:02:56.718Z,100.00
2023-12-30T08:05:59.553Z,100.00
2023-12-30T08:09:02.061Z,100.00
2023-12-30T08:12:05.901Z,100.00
2023-12-30T08:15:10.470Z,100.00
2023-12-30T08:18:13.216Z,100.00
2023-12-30T08:21:16.059Z,100.00
2023-12-30T08:24:20.547Z,100.00
2023-12-30T08:27:23.184Z,100.00
2023-12-30T08:30:26.975Z,100.00
2023-12-30T08:33:29.752Z,100.00
2023-12-30T08:36:32.591Z,100.00
2023-12-30T08:39:38.573Z,100.00
2023-12-30T08:42:45.497Z,100.00
2023-12-30T08:45:48.025Z,100.00
2023-12-30T08:48:50.948Z,100.00
2023-12-30T08:51:53.520Z,100.00
2023-12-30T08:54:57.280Z,99.72
2023-12-30T08:58:01.049Z,99.00
2023-12-30T09:01:04.117Z,98.27
2023-12-30T09:04:06.843Z,97.55
2023-12-30T09:07:10.167Z,97.18
2023-12-30T09:10:13.065Z,97.88
2023-12-30T09:13:15.743Z,98.31
2023-12-30T09:16:18.645Z,98.47
2023-12-30T09:19:21.613Z,98.73
2023-12-30T09:22:24.198Z,98.77
2023-12-30T09:25:27.063Z,98.94
2023-12-30T09:28:31.931Z,98.96
2023-12-30T09:31:35.008Z,99.14
2023-12-30T09:34:42.062Z,98.85
2023-12-30T09:37:46.987Z,99.01
2023-12-30T09:40:53.594Z,99.27
2023-12-30T09:44:00.147Z,98.74
2023-12-30T09:47:09.163Z,98.34
2023-12-30T09:50:12.334Z,97.93
2023-12-30T09:53:15.044Z,97.71
2023-12-30T09:56:19.732Z,98.23
2023-12-30T09:59:22.728Z,98.17
2023-12-30T10:02:26.154Z,97.49
2023-12-30T10:05:29.014Z,96.77
2023-12-30T10:08:32.141Z,96.64
2023-12-30T10:11:36.403Z,95.55
2023-12-30T10:14:39.124Z,94.86
2023-12-30T10:17:42.341Z,94.08
2023-12-30T10:20:46.994Z,93.05
2023-12-30T10:23:52.633Z,93.23
2023-12-30T10:26:55.397Z,93.03
2023-12-30T10:30:01.025Z,93.06
2023-12-30T10:33:15.536Z,92.81
2023-12-30T10:36:19.767Z,92.96
2023-12-30T10:39:26.420Z,92.15
2023-12-30T10:42:29.138Z,91.07
2023-12-30T10:45:32.269Z,90.28
2023-12-30T10:48:38.742Z,89.68
2023-12-30T10:51:42.192Z,89.23
2023-12-30T10:58:03.338Z,88.03
2023-12-30T11:01:06.758Z,87.59
2023-12-30T11:04:13.928Z,87.08
2023-12-30T11:07:21.895Z,86.81
2023-12-30T11:10:24.378Z,86.19
2023-12-30T11:13:27.162Z,86.36
2023-12-30T11:16:34.111Z,86.17
2023-12-30T11:19:38.028Z,86.01
2023-12-30T11:22:42.206Z,86.03
2023-12-30T11:25:47.395Z,86.09
2023-12-30T11:28:50.765Z,86.33
2023-12-30T11:31:57.905Z,86.33
2023-12-30T11:35:00.773Z,86.14
2023-12-30T11:38:10.214Z,86.20
2023-12-30T11:41:12.762Z,85.13
2023-12-30T11:44:16.191Z,85.39
2023-12-30T11:47:22.893Z,84.91
2023-12-30T11:50:25.651Z,84.81
2023-12-30T11:53:33.627Z,85.03
2023-12-30T11:56:36.788Z,84.78
2023-12-30T11:59:39.540Z,84.54
2023-12-30T12:02:42.405Z,84.59
2023-12-30T12:05:45.239Z,83.66
2023-12-30T12:08:48.753Z,82.48
2023-12-30T12:11:51.980Z,82.94
2023-12-30T12:14:55.029Z,83.37
2023-12-30T12:17:57.980Z,82.22
2023-12-30T12:21:05.602Z,81.86
2023-12-30T12:24:08.588Z,80.45
2023-12-30T12:27:11.051Z,80.17
2023-12-30T12:30:14.183Z,77.04
2023-12-30T12:33:20.009Z,78.11
2023-12-30T12:36:23.317Z,79.47
2023-12-30T12:39:25.833Z,79.02
2023-12-30T12:42:31.081Z,77.79
2023-12-30T12:45:33.934Z,77.84
2023-12-30T12:48:39.262Z,77.27
2023-12-30T12:51:45.240Z,76.82
2023-12-30T12:54:48.605Z,76.62
2023-12-30T12:57:51.201Z,76.49
2023-12-30T13:00:54.424Z,75.46
2023-12-30T13:03:59.398Z,74.99
2023-12-30T13:07:02.214Z,74.75
2023-12-30T13:10:28.307Z,75.69
2023-12-30T13:13:31.197Z,75.52
2023-12-30T13:16:33.757Z,76.23
2023-12-30T13:19:37.898Z,76.03
2023-12-30T13:22:40.424Z,75.04
2023-12-30T13:25:44.315Z,75.93
2023-12-30T13:28:47.530Z,75.60
2023-12-30T13:31:54.485Z,74.81
2023-12-30T13:34:58.529Z,74.64
2023-12-30T13:38:02.515Z,75.08
2023-12-30T13:41:05.331Z,75.21
2023-12-30T13:44:13.031Z,75.43
2023-12-30T13:47:24.748Z,75.65
2023-12-30T13:50:32.758Z,76.37
2023-12-30T13:53:35.317Z,77.05
2023-12-30T13:56:43.114Z,77.53
2023-12-30T13:59:46.237Z,77.21
2023-12-30T14:02:54.038Z,78.39
2023-12-30T14:05:57.866Z,78.47
2023-12-30T14:09:14.261Z,79.00
2023-12-30T14:12:19.245Z,79.37
2023-12-30T14:15:21.709Z,79.42
2023-12-30T14:18:24.983Z,80.37
2023-12-30T14:21:27.708Z,80.99
2023-12-30T14:24:32.849Z,81.21
2023-12-30T14:27:37.082Z,81.56
2023-12-30T14:30:40.615Z,81.89
2023-12-30T14:33:43.714Z,82.24
2023-12-30T14:36:46.527Z,82.21
2023-12-30T14:39:49.345Z,82.26
2023-12-30T14:42:52.418Z,82.72
2023-12-30T14:45:55.166Z,82.55
2023-12-30T14:48:59.446Z,82.62
2023-12-30T14:52:02.303Z,82.82
2023-12-30T14:55:10.668Z,82.94
2023-12-30T14:58:13.127Z,82.40
2023-12-30T15:01:17.126Z,82.99
2023-12-30T15:04:19.669Z,83.31
2023-12-30T15:07:22.614Z,82.75
2023-12-30T15:10:25.805Z,82.71
2023-12-30T15:13:28.641Z,83.38
2023-12-30T15:16:31.296Z,83.70
2023-12-30T15:19:34.085Z,84.34
2023-12-30T15:22:37.979Z,84.76
2023-12-30T15:25:43.581Z,85.35
2023-12-30T15:28:46.047Z,86.08
2023-12-30T15:31:50.360Z,86.33
2023-12-30T15:34:53.092Z,86.85
2023-12-30T15:37:56.270Z,87.40
2023-12-30T15:40:59.605Z,87.46
2023-12-30T15:44:02.499Z,87.66
2023-12-30T15:47:11.301Z,87.90
2023-12-30T15:50:14.086Z,88.33
2023-12-30T15:53:18.845Z,88.98
2023-12-30T15:56:21.502Z,89.29
2023-12-30T15:59:23.876Z,90.74
2023-12-30T16:02:26.620Z,91.38
2023-12-30T16:05:29.450Z,91.87
2023-12-30T16:08:31.884Z,92.38
2023-12-30T16:11:35.326Z,92.48
2023-12-30T16:14:38.626Z,92.61
2023-12-30T16:17:43.091Z,92.69
2023-12-30T16:20:46.324Z,92.65
2023-12-30T16:23:49.194Z,92.47
2023-12-30T16:26:51.670Z,92.69
2023-12-30T16:29:54.367Z,92.36
2023-12-30T16:32:56.916Z,92.23
2023-12-30T16:35:59.738Z,92.12
2023-12-30T16:39:02.825Z,92.17
2023-12-30T16:42:05.676Z,92.33
2023-12-30T16:45:08.535Z,92.61
2023-12-30T16:48:11.552Z,92.66
2023-12-30T16:51:14.775Z,93.07
2023-12-30T16:54:17.428Z,93.27
2023-12-30T16:57:19.914Z,93.52
2023-12-30T17:00:22.827Z,93.95
2023-12-30T17:03:25.224Z,93.88
2023-12-30T17:06:27.984Z,93.94
2023-12-30T17:09:30.462Z,93.67
2023-12-30T17:12:33.249Z,93.34
2023-12-30T17:15:35.946Z,93.51
2023-12-30T17:18:38.789Z,92.78
2023-12-30T17:21:41.398Z,92.00
2023-12-30T17:24:44.062Z,91.38
2023-12-30T17:27:46.634Z,91.09
2023-12-30T17:30:49.774Z,91.45
2023-12-30T17:33:52.359Z,92.34
2023-12-30T17:36:55.258Z,92.24
2023-12-30T17:39:57.655Z,92.43
2023-12-30T17:43:00.727Z,92.64
2023-12-30T17:46:04.050Z,93.15
2023-12-30T17:49:06.866Z,93.71
2023-12-30T17:52:09.448Z,93.79
2023-12-30T17:55:12.263Z,94.09
2023-12-30T17:58:15.075Z,94.14
2023-12-30T18:01:19.487Z,94.14
2023-12-30T18:04:22.567Z,94.66
2023-12-30T18:07:25.143Z,94.87
2023-12-30T18:10:28.123Z,94.88
2023-12-30T18:13:30.800Z,94.85
2023-12-30T18:16:33.686Z,94.90
2023-12-30T18:19:36.407Z,94.99
2023-12-30T18:22:41.549Z,95.07
2023-12-30T18:25:44.160Z,94.82
2023-12-30T18:28:47.153Z,94.78
2023-12-30T18:31:49.688Z,95.02
2023-12-30T18:34:53.106Z,95.26
2023-12-30T18:37:55.567Z,95.48
2023-12-30T18:40:58.270Z,95.47
2023-12-30T18:44:01.270Z,95.51
2023-12-30T18:47:04.139Z,95.61
2023-12-30T18:50:06.905Z,95.58
2023-12-30T18:53:09.901Z,95.86
2023-12-30T18:56:12.343Z,96.26
2023-12-30T18:59:15.168Z,96.25
2023-12-30T19:02:17.936Z,96.10
2023-12-30T19:05:20.882Z,96.15
2023-12-30T19:08:23.360Z,96.32
2023-12-30T19:11:26.094Z,96.48
2023-12-30T19:14:28.674Z,96.67
2023-12-30T19:17:31.523Z,96.71
2023-12-30T19:20:34.069Z,96.97
2023-12-30T19:23:36.886Z,97.31
2023-12-30T19:26:41.947Z,97.21
2023-12-30T19:29:44.700Z,97.11
2023-12-30T19:32:47.088Z,97.05
2023-12-30T19:35:50.214Z,97.15
2023-12-30T19:38:54.574Z,97.28
2023-12-30T19:41:57.390Z,97.18
2023-12-30T19:45:00.130Z,97.37
2023-12-30T19:48:03.227Z,97.27
2023-12-30T19:51:05.776Z,97.18
2023-12-30T19:54:08.401Z,97.32
2023-12-30T19:57:11.118Z,97.54
2023-12-30T20:00:14.750Z,97.22
2023-12-30T20:03:19.240Z,96.70
2023-12-30T20:06:21.748Z,96.75
2023-12-30T20:09:24.656Z,96.94
2023-12-30T20:12:27.201Z,96.82
2023-12-30T20:15:29.915Z,96.43
2023-12-30T20:18:32.395Z,96.33
2023-12-30T20:21:35.527Z,96.32
2023-12-30T20:24:37.944Z,96.49
2023-12-30T20:27:42.210Z,96.70
2023-12-30T20:30:44.740Z,96.39
2023-12-30T20:33:48.215Z,96.73
2023-12-30T20:36:53.764Z,96.86
2023-12-30T20:39:56.418Z,97.02
2023-12-30T20:42:59.401Z,97.18
2023-12-30T20:46:02.107Z,96.84
2023-12-30T20:49:07.299Z,96.59
2023-12-30T20:52:10.301Z,96.53
2023-12-30T20:55:15.229Z,96.16
2023-12-30T20:58:18.843Z,96.02
2023-12-30T21:01:22.214Z,95.62
2023-12-30T21:04:25.098Z,95.40
2023-12-30T21:07:27.703Z,95.21
2023-12-30T21:10:30.575Z,95.46
2023-12-30T21:13:33.066Z,95.52
2023-12-30T21:16:36.746Z,95.60
2023-12-30T21:19:39.486Z,95.53
2023-12-30T21:22:42.264Z,95.39
2023-12-30T21:25:49.748Z,95.27
2023-12-30T21:28:52.633Z,94.81
2023-12-30T21:31:56.276Z,94.59
2023-12-30T21:34:59.061Z,94.63
2023-12-30T21:38:01.564Z,94.53
2023-12-30T21:41:07.309Z,94.47
2023-12-30T21:44:09.702Z,94.56
2023-12-30T21:47:12.552Z,94.36
2023-12-30T21:50:15.305Z,94.63
2023-12-30T21:53:18.088Z,94.34
2023-12-30T21:56:20.600Z,94.46
2023-12-30T21:59:23.308Z,94.94
2023-12-30T22:02:25.760Z,95.72
2023-12-30T22:05:28.951Z,96.24
2023-12-30T22:08:31.890Z,96.64
2023-12-30T22:11:34.615Z,96.66
2023-12-30T22:14:37.335Z,96.61
2023-12-30T22:17:40.106Z,96.83
2023-12-30T22:20:42.661Z,96.94
2023-12-30T22:23:46.078Z,97.34
2023-12-30T22:26:49.168Z,97.53
2023-12-30T22:29:51.864Z,97.64
2023-12-30T22:32:54.303Z,97.82
2023-12-30T22:35:57.033Z,98.03
2023-12-30T22:38:59.565Z,98.10
2023-12-30T22:42:02.367Z,98.27
2023-12-30T22:45:06.476Z,98.00
2023-12-30T22:48:09.309Z,97.69
2023-12-30T22:51:12.464Z,97.67
2023-12-30T22:54:16.342Z,97.85
2023-12-30T22:57:18.900Z,97.66
2023-12-30T23:00:28.267Z,97.56
2023-12-30T23:03:30.771Z,97.13
2023-12-30T23:06:33.506Z,96.88
2023-12-30T23:09:35.969Z,96.66
2023-12-30T23:12:39.492Z,96.59
2023-12-30T23:15:41.894Z,96.17
2023-12-30T23:18:44.799Z,95.59
2023-12-30T23:21:47.201Z,95.43
2023-12-30T23:24:50.889Z,94.93
2023-12-30T23:27:53.214Z,94.64
2023-12-30T23:30:56.382Z,94.30
2023-12-30T23:33:59.329Z,94.19
2023-12-30T23:37:02.112Z,94.42
2023-12-30T23:40:07.623Z,94.74
2023-12-30T23:43:11.635Z,97.17
2023-12-30T23:46:14.178Z,98.23
2023-12-30T23:49:16.960Z,99.10
2023-12-30T23:52:19.360Z,99.15
2023-12-30T23:55:22.142Z,99.21
2023-12-30T23:58:24.836Z,99.25
